createdAt,value
2022-12-23T00:00:10.912Z,100133.78
2022-12-23T00:03:12.815Z,100133.06
2022-12-23T00:06:16.455Z,100143.53
2022-12-23T00:09:18.100Z,100143.62
2022-12-23T00:12:38.371Z,100145.22
2022-12-23T00:15:39.993Z,100135.81
2022-12-23T00:18:42.499Z,100143.75
2022-12-23T00:21:44.181Z,100136.28
2022-12-23T00:24:45.827Z,100140.09
2022-12-23T00:28:01.427Z,100131.41
2022-12-23T00:31:05.955Z,100135.13
2022-12-23T00:34:07.655Z,100142.78
2022-12-23T00:37:09.307Z,100137.53
2022-12-23T00:40:33.142Z,100135.78
2022-12-23T00:43:34.774Z,100135.66
2022-12-23T00:46:36.729Z,100133.00
2022-12-23T00:49:44.256Z,100144.28
2022-12-23T00:52:45.778Z,100141.50
2022-12-23T00:55:47.983Z,100148.28
2022-12-23T00:58:49.734Z,100148.72
2022-12-23T01:02:10.207Z,100169.06
2022-12-23T01:05:30.256Z,100168.44
2022-12-23T01:08:31.887Z,100155.47
2022-12-23T01:11:34.226Z,100159.37
2022-12-23T01:14:35.946Z,100156.72
2022-12-23T01:17:37.606Z,100158.03
2022-12-23T01:20:40.258Z,100162.06
2022-12-23T01:23:41.906Z,100143.75
2022-12-23T01:26:43.657Z,100151.66
2022-12-23T01:29:46.059Z,100156.34
2022-12-23T01:32:47.803Z,100146.59
2022-12-23T01:35:49.776Z,100148.78
2022-12-23T01:38:51.691Z,100154.50
2022-12-23T01:42:11.800Z,100143.31
2022-12-23T01:45:24.863Z,100144.28
2022-12-23T01:48:30.464Z,100142.63
2022-12-23T01:51:32.358Z,100134.22
2022-12-23T01:54:36.228Z,100131.03
2022-12-23T01:57:41.741Z,100117.84
2022-12-23T02:01:02.564Z,100126.94
2022-12-23T02:04:08.063Z,100121.63
2022-12-23T02:07:29.723Z,100122.22
2022-12-23T02:10:44.661Z,100122.69
2022-12-23T02:14:19.962Z,100116.28
2022-12-23T02:17:28.190Z,100115.63
2022-12-23T02:20:32.798Z,100108.47
2022-12-23T02:23:43.761Z,100103.72
2022-12-23T02:27:15.253Z,100109.53
2022-12-23T02:30:48.870Z,100102.84
2022-12-23T02:34:12.399Z,100093.28
2022-12-23T02:37:20.169Z,100097.97
2022-12-23T02:40:24.721Z,100092.09
2022-12-23T02:43:51.514Z,100094.94
2022-12-23T02:47:00.914Z,100088.31
2022-12-23T02:50:09.121Z,100098.00
2022-12-23T02:53:25.888Z,100090.09
2022-12-23T02:56:30.567Z,100089.03
2022-12-23T02:59:52.214Z,100082.22
2022-12-23T03:02:53.974Z,100081.16
2022-12-23T03:05:56.252Z,100085.72
2022-12-23T03:09:00.396Z,100085.72
2022-12-23T03:12:19.737Z,100090.88
2022-12-23T03:15:41.493Z,100089.22
2022-12-23T03:19:06.304Z,100088.16
2022-12-23T03:22:13.990Z,100089.50
2022-12-23T03:25:26.779Z,100084.78
2022-12-23T03:28:34.640Z,100087.47
2022-12-23T03:31:38.017Z,100088.06
2022-12-23T03:34:44.470Z,100078.56
2022-12-23T03:37:50.562Z,100084.34
2022-12-23T03:41:00.893Z,100085.75
2022-12-23T03:45:03.545Z,100077.31
2022-12-23T03:48:31.838Z,100080.34
2022-12-23T03:51:38.401Z,100083.63
2022-12-23T03:54:52.137Z,100081.25
2022-12-23T03:58:38.986Z,100085.22
2022-12-23T04:02:17.880Z,100075.28
2022-12-23T04:05:22.444Z,100087.63
2022-12-23T04:08:30.215Z,100078.59
2022-12-23T04:11:33.361Z,100068.78
2022-12-23T04:14:36.752Z,100062.22
2022-12-23T04:17:38.569Z,100052.91
2022-12-23T04:20:40.283Z,100058.31
2022-12-23T04:23:41.991Z,100067.16
2022-12-23T04:26:43.675Z,100059.19
2022-12-23T04:29:45.456Z,100035.88
2022-12-23T04:32:47.141Z,100047.19
2022-12-23T04:35:48.855Z,100064.00
2022-12-23T04:38:50.526Z,100049.72
2022-12-23T04:41:52.171Z,100055.66
2022-12-23T04:44:53.925Z,100057.28
2022-12-23T04:47:55.711Z,100049.34
2022-12-23T04:50:57.352Z,100048.66
2022-12-23T04:53:59.020Z,100041.81
2022-12-23T04:57:00.860Z,100051.13
2022-12-23T05:00:04.104Z,100044.06
2022-12-23T05:03:06.286Z,100037.50
2022-12-23T05:06:08.558Z,100039.69
2022-12-23T05:09:10.308Z,100041.50
2022-12-23T05:12:12.685Z,100039.69
2022-12-23T05:15:14.334Z,100053.41
2022-12-23T05:18:16.314Z,100042.53
2022-12-23T05:21:18.127Z,100042.19
2022-12-23T05:24:19.801Z,100037.53
2022-12-23T05:27:21.483Z,100044.28
2022-12-23T05:30:23.143Z,100044.22
2022-12-23T05:33:24.840Z,100050.34
2022-12-23T05:36:26.590Z,100062.12
2022-12-23T05:39:28.235Z,100063.56
2022-12-23T05:42:29.908Z,100065.09
2022-12-23T05:45:31.654Z,100064.25
2022-12-23T05:48:33.482Z,100068.16
2022-12-23T05:51:35.146Z,100063.50
2022-12-23T05:54:36.821Z,100063.94
2022-12-23T05:57:38.600Z,100064.09
2022-12-23T06:00:40.265Z,100064.91
2022-12-23T06:03:42.030Z,100078.16
2022-12-23T06:06:44.206Z,100084.22
2022-12-23T06:09:45.912Z,100092.00
2022-12-23T06:12:47.713Z,100092.56
2022-12-23T06:15:49.471Z,100096.41
2022-12-23T06:18:55.655Z,100092.41
2022-12-23T06:21:57.296Z,100094.06
2022-12-23T06:24:59.003Z,100089.19
2022-12-23T06:28:00.693Z,100096.81
2022-12-23T06:31:02.429Z,100102.25
2022-12-23T06:34:04.126Z,100098.00
2022-12-23T06:37:05.815Z,100102.09
2022-12-23T06:40:08.069Z,100107.56
2022-12-23T06:43:11.407Z,100107.00
2022-12-23T06:46:14.279Z,100115.16
2022-12-23T06:49:15.973Z,100127.38
2022-12-23T06:52:17.736Z,100125.78
2022-12-23T06:55:19.408Z,100129.56
2022-12-23T06:58:21.030Z,100132.53
2022-12-23T07:01:22.748Z,100134.25
2022-12-23T07:04:24.453Z,100126.25
2022-12-23T07:07:26.140Z,100125.66
2022-12-23T07:10:27.814Z,100115.22
2022-12-23T07:13:30.383Z,100115.75
2022-12-23T07:16:32.170Z,100113.31
2022-12-23T07:19:34.312Z,100109.03
2022-12-23T07:22:35.943Z,100109.13
2022-12-23T07:25:38.146Z,100101.31
2022-12-23T07:28:40.009Z,100112.00
2022-12-23T07:31:41.760Z,100101.97
2022-12-23T07:34:43.581Z,100104.94
2022-12-23T07:37:45.595Z,100112.25
2022-12-23T07:40:49.168Z,100110.94
2022-12-23T07:43:50.841Z,100111.34
2022-12-23T07:46:52.474Z,100101.97
2022-12-23T07:49:54.210Z,100098.72
2022-12-23T07:52:56.183Z,100090.72
2022-12-23T07:55:57.908Z,100090.81
2022-12-23T07:58:59.567Z,100086.84
2022-12-23T08:02:01.414Z,100093.38
2022-12-23T08:05:03.253Z,100100.34
2022-12-23T08:08:05.133Z,100101.84
2022-12-23T08:11:09.202Z,100100.94
2022-12-23T08:14:10.883Z,100102.94
2022-12-23T08:17:12.611Z,100112.72
2022-12-23T08:20:14.357Z,100149.25
2022-12-23T08:23:19.997Z,100138.47
2022-12-23T08:26:26.343Z,100142.97
2022-12-23T08:29:31.286Z,100134.53
2022-12-23T08:32:37.516Z,100132.25
2022-12-23T08:35:39.274Z,100124.56
2022-12-23T08:38:41.432Z,100120.06
2022-12-23T08:41:45.814Z,100116.19
2022-12-23T08:44:47.478Z,100106.94
2022-12-23T08:47:49.136Z,100105.97
2022-12-23T08:50:50.773Z,100102.78
2022-12-23T08:54:00.473Z,100108.22
2022-12-23T08:57:02.426Z,100087.87
2022-12-23T09:00:04.537Z,100077.56
2022-12-23T09:03:06.927Z,100082.59
2022-12-23T09:06:16.712Z,100075.25
2022-12-23T09:09:18.382Z,100071.47
2022-12-23T09:12:20.057Z,100061.47
2022-12-23T09:15:21.799Z,100050.25
2022-12-23T09:18:23.441Z,100058.66
2022-12-23T09:21:25.597Z,100052.56
2022-12-23T09:24:27.262Z,100055.41
2022-12-23T09:27:28.935Z,100043.47
2022-12-23T09:30:30.602Z,100056.09
2022-12-23T09:33:32.242Z,100058.00
2022-12-23T09:36:34.068Z,100059.38
2022-12-23T09:39:35.701Z,100053.16
2022-12-23T09:43:16.085Z,100063.56
2022-12-23T09:46:22.959Z,100047.03
2022-12-23T09:49:24.694Z,100055.84
2022-12-23T09:52:50.134Z,100042.53
2022-12-23T09:56:00.410Z,100044.84
2022-12-23T09:59:24.452Z,100027.63
2022-12-23T10:02:48.341Z,100038.84
2022-12-23T10:06:08.714Z,100046.00
2022-12-23T10:09:13.598Z,100049.72
2022-12-23T10:12:40.256Z,100060.50
2022-12-23T10:15:47.380Z,100054.03
2022-12-23T10:19:07.668Z,100047.78
2022-12-23T10:22:23.913Z,100042.31
2022-12-23T10:25:34.812Z,100027.28
2022-12-23T10:28:36.477Z,100031.06
2022-12-23T10:31:59.506Z,100019.50
2022-12-23T10:35:35.576Z,100021.81
2022-12-23T10:39:06.098Z,100007.31
2022-12-23T10:42:42.383Z,100003.16
2022-12-23T10:46:11.901Z,99988.41
2022-12-23T10:49:38.359Z,99982.38
2022-12-23T10:52:42.988Z,99978.63
2022-12-23T10:55:45.461Z,99976.50
2022-12-23T10:58:52.946Z,99971.19
2022-12-23T11:02:02.419Z,99982.31
2022-12-23T11:05:12.365Z,99961.94
2022-12-23T11:08:14.162Z,99962.09
2022-12-23T11:11:15.823Z,99951.62
2022-12-23T11:14:32.807Z,99946.97
2022-12-23T11:17:35.175Z,99947.41
2022-12-23T11:20:37.519Z,99947.63
2022-12-23T11:23:39.157Z,99941.34
2022-12-23T11:26:41.292Z,99946.78
2022-12-23T11:29:51.580Z,99938.56
2022-12-23T11:32:54.152Z,99946.50
2022-12-23T11:36:14.592Z,99945.97
2022-12-23T11:39:20.648Z,99940.00
2022-12-23T11:42:29.119Z,99943.47
2022-12-23T11:45:36.042Z,99934.41
2022-12-23T11:48:38.592Z,99921.75
2022-12-23T11:51:40.476Z,99923.97
2022-12-23T11:54:54.356Z,99930.19
2022-12-23T11:57:56.753Z,99923.75
2022-12-23T12:01:00.881Z,99926.69
2022-12-23T12:04:17.877Z,99936.06
2022-12-23T12:07:19.703Z,99940.00
2022-12-23T12:10:26.258Z,99927.78
2022-12-23T12:13:44.502Z,99928.00
2022-12-23T12:16:55.295Z,99930.22
2022-12-23T12:20:10.628Z,99925.63
2022-12-23T12:23:21.168Z,99931.75
2022-12-23T12:26:29.708Z,99943.06
2022-12-23T12:29:34.253Z,99929.19
2022-12-23T12:33:24.012Z,99948.25
2022-12-23T12:36:52.771Z,99955.78
2022-12-23T12:40:01.038Z,99958.62
2022-12-23T12:43:14.456Z,99958.72
2022-12-23T12:46:34.335Z,99955.81
2022-12-23T12:49:43.366Z,99959.09
2022-12-23T12:52:45.063Z,99946.06
2022-12-23T12:55:57.231Z,99944.22
2022-12-23T12:58:59.126Z,99941.41
2022-12-23T13:02:00.924Z,99947.09
2022-12-23T13:05:33.554Z,99935.34
2022-12-23T13:08:51.391Z,99921.22
2022-12-23T13:12:15.712Z,99931.78
2022-12-23T13:15:20.143Z,99927.00
2022-12-23T13:18:47.792Z,99931.00
2022-12-23T13:22:09.011Z,99941.03
2022-12-23T13:25:24.352Z,99937.59
2022-12-23T13:28:33.128Z,99933.59
2022-12-23T13:31:58.184Z,99943.09
2022-12-23T13:35:18.970Z,99930.50
2022-12-23T13:38:39.036Z,99928.09
2022-12-23T13:41:53.545Z,99944.69
2022-12-23T13:44:56.632Z,99958.03
2022-12-23T13:48:13.223Z,99959.66
2022-12-23T13:51:26.503Z,99969.94
2022-12-23T13:54:37.113Z,99967.09
2022-12-23T13:57:48.391Z,99966.41
2022-12-23T14:00:58.831Z,99958.81
2022-12-23T14:04:37.009Z,99950.81
2022-12-23T14:07:38.735Z,99941.66
2022-12-23T14:10:57.415Z,99951.38
2022-12-23T14:14:01.617Z,99960.41
2022-12-23T14:17:26.355Z,99959.62
2022-12-23T14:20:36.688Z,99960.09
2022-12-23T14:24:24.889Z,99967.62
2022-12-23T14:27:35.349Z,99969.34
2022-12-23T14:30:41.257Z,99959.62
2022-12-23T14:33:48.883Z,99964.84
2022-12-23T14:37:17.041Z,99967.00
2022-12-23T14:40:37.046Z,99967.91
2022-12-23T14:43:44.606Z,99973.16
2022-12-23T14:46:46.160Z,99977.44
2022-12-23T14:49:48.061Z,99979.00
2022-12-23T14:52:59.324Z,99977.34
2022-12-23T14:56:10.519Z,99973.91
2022-12-23T14:59:33.139Z,99967.84
2022-12-23T15:02:38.933Z,99976.75
2022-12-23T15:05:40.881Z,99968.38
2022-12-23T15:08:45.968Z,99970.09
2022-12-23T15:11:48.202Z,99964.22
2022-12-23T15:14:57.656Z,99952.06
2022-12-23T15:18:20.464Z,99953.75
2022-12-23T15:21:31.245Z,99960.28
2022-12-23T15:24:32.913Z,99963.87
2022-12-23T15:27:36.236Z,99973.06
2022-12-23T15:30:48.295Z,99970.28
2022-12-23T15:34:08.882Z,99962.59
2022-12-23T15:37:15.823Z,99951.88
2022-12-23T15:40:28.214Z,99963.25
2022-12-23T15:43:30.452Z,99960.19
2022-12-23T15:46:32.124Z,99980.91
2022-12-23T15:49:33.834Z,99983.09
2022-12-23T15:52:35.497Z,99988.69
2022-12-23T15:55:41.341Z,99981.84
2022-12-23T15:58:43.512Z,99970.84
2022-12-23T16:01:45.318Z,99973.16
2022-12-23T16:05:00.388Z,99966.81
2022-12-23T16:08:15.992Z,99962.78
2022-12-23T16:11:20.229Z,99967.38
2022-12-23T16:14:31.056Z,99972.66
2022-12-23T16:17:36.677Z,99976.78
2022-12-23T16:20:47.685Z,99996.25
2022-12-23T16:23:52.275Z,99996.09
2022-12-23T16:26:56.341Z,99997.47
2022-12-23T16:30:01.738Z,99990.91
2022-12-23T16:33:23.505Z,99981.13
2022-12-23T16:36:25.150Z,99982.97
2022-12-23T16:39:26.866Z,99977.97
2022-12-23T16:42:28.523Z,99968.69
2022-12-23T16:45:34.446Z,99967.59
2022-12-23T16:48:39.578Z,99966.59
2022-12-23T16:51:41.359Z,99985.97
2022-12-23T16:54:43.384Z,99967.69
2022-12-23T16:57:45.890Z,99962.41
2022-12-23T17:00:47.870Z,99966.19
2022-12-23T17:03:49.995Z,99970.34
2022-12-23T17:06:51.641Z,99982.12
2022-12-23T17:09:54.310Z,99981.31
2022-12-23T17:12:55.980Z,99972.00
2022-12-23T17:15:57.682Z,99959.22
2022-12-23T17:19:00.128Z,99951.28
2022-12-23T17:22:03.406Z,99958.38
2022-12-23T17:25:06.112Z,99956.22
2022-12-23T17:28:10.881Z,99965.13
2022-12-23T17:31:16.190Z,99963.66
2022-12-23T17:34:24.390Z,99964.22
2022-12-23T17:37:26.042Z,99956.78
2022-12-23T17:40:27.737Z,99948.66
2022-12-23T17:43:29.465Z,99956.84
2022-12-23T17:46:31.494Z,99959.62
2022-12-23T17:49:33.197Z,99954.56
2022-12-23T17:52:34.863Z,99966.06
2022-12-23T17:55:36.530Z,99956.88
2022-12-23T17:58:38.829Z,99957.66
2022-12-23T18:01:40.487Z,99962.53
2022-12-23T18:04:43.245Z,99955.63
2022-12-23T18:07:44.925Z,99953.25
2022-12-23T18:10:46.563Z,99955.19
2022-12-23T18:13:50.099Z,99963.22
2022-12-23T18:16:51.787Z,99944.34
2022-12-23T18:19:53.562Z,99943.22
2022-12-23T18:22:55.505Z,99946.25
2022-12-23T18:25:58.331Z,99961.94
2022-12-23T18:28:59.961Z,99967.91
2022-12-23T18:32:01.678Z,99966.25
2022-12-23T18:35:03.817Z,99978.59
2022-12-23T18:38:05.967Z,99967.56
2022-12-23T18:41:12.122Z,99970.09
2022-12-23T18:44:21.387Z,99972.72
2022-12-23T18:47:23.180Z,99961.94
2022-12-23T18:50:25.870Z,99957.91
2022-12-23T18:53:27.569Z,99954.78
2022-12-23T18:56:29.272Z,99966.81
2022-12-23T18:59:33.034Z,99969.53
2022-12-23T19:02:34.774Z,99973.78
2022-12-23T19:05:37.882Z,99976.16
2022-12-23T19:08:41.376Z,99964.59
2022-12-23T19:11:43.658Z,99961.22
2022-12-23T19:14:45.321Z,99979.94
2022-12-23T19:17:48.143Z,99986.53
2022-12-23T19:20:50.070Z,99988.69
2022-12-23T19:23:51.748Z,99989.03
2022-12-23T19:26:53.432Z,99984.91
2022-12-23T19:29:55.230Z,99979.91
2022-12-23T19:32:56.897Z,99984.72
2022-12-23T19:35:58.653Z,99995.50
2022-12-23T19:39:00.373Z,99993.28
2022-12-23T19:42:02.065Z,99990.75
2022-12-23T19:45:03.937Z,99985.72
2022-12-23T19:48:06.027Z,99985.13
2022-12-23T19:51:10.526Z,99985.19
2022-12-23T19:54:12.277Z,99981.94
2022-12-23T19:57:14.010Z,99977.03
2022-12-23T20:00:16.145Z,99985.00
2022-12-23T20:03:17.885Z,99984.00
2022-12-23T20:06:21.336Z,100000.03
2022-12-23T20:09:22.992Z,100012.28
2022-12-23T20:12:26.732Z,100006.81
2022-12-23T20:15:28.418Z,99997.41
2022-12-23T20:18:30.499Z,99993.22
2022-12-23T20:21:34.108Z,100002.16
2022-12-23T20:24:36.298Z,99999.66
2022-12-23T20:27:38.825Z,99993.91
2022-12-23T20:30:42.758Z,99996.78
2022-12-23T20:33:45.200Z,100001.28
2022-12-23T20:36:47.133Z,99997.50
2022-12-23T20:39:48.977Z,99990.59
2022-12-23T20:42:50.720Z,99999.78
2022-12-23T20:45:52.437Z,99996.81
2022-12-23T20:48:54.392Z,100004.91
2022-12-23T20:51:56.033Z,100008.03
2022-12-23T20:54:57.798Z,100011.75
2022-12-23T20:58:22.544Z,100023.66
2022-12-23T21:01:31.746Z,100024.94
2022-12-23T21:04:33.477Z,100026.59
2022-12-23T21:07:35.138Z,100014.19
2022-12-23T21:10:37.071Z,100016.87
2022-12-23T21:13:40.504Z,100013.06
2022-12-23T21:16:43.047Z,100008.62
2022-12-23T21:19:44.848Z,100009.84
2022-12-23T21:22:46.551Z,100014.34
2022-12-23T21:25:48.208Z,100003.13
2022-12-23T21:28:51.612Z,100006.44
2022-12-23T21:31:53.465Z,100000.66
2022-12-23T21:34:55.186Z,99994.09
2022-12-23T21:37:56.833Z,99980.75
2022-12-23T21:41:04.037Z,99978.37
2022-12-23T21:44:06.001Z,99965.78
2022-12-23T21:47:07.733Z,99959.94
2022-12-23T21:50:09.889Z,99951.81
2022-12-23T21:53:11.528Z,99934.47
2022-12-23T21:56:15.870Z,99934.66
2022-12-23T21:59:17.501Z,99935.81
2022-12-23T22:02:19.258Z,99933.13
2022-12-23T22:05:21.775Z,99938.19
2022-12-23T22:08:23.376Z,99929.94
2022-12-23T22:11:28.159Z,99943.28
2022-12-23T22:14:29.864Z,99948.72
2022-12-23T22:17:31.497Z,99956.13
2022-12-23T22:20:33.161Z,99933.16
2022-12-23T22:23:35.588Z,99927.06
2022-12-23T22:26:37.452Z,99925.03
2022-12-23T22:29:39.275Z,99915.22
2022-12-23T22:32:42.755Z,99903.44
2022-12-23T22:35:54.032Z,99890.00
2022-12-23T22:38:58.169Z,99883.97
2022-12-23T22:41:59.850Z,99876.53
2022-12-23T22:45:01.676Z,99868.47
2022-12-23T22:48:03.652Z,99861.41
2022-12-23T22:51:14.513Z,99854.81
2022-12-23T22:54:16.194Z,99860.22
2022-12-23T22:57:17.830Z,99866.66
2022-12-23T23:00:19.578Z,99873.75
2022-12-23T23:03:21.574Z,99882.03
2022-12-23T23:06:25.801Z,99866.63
2022-12-23T23:09:27.534Z,99852.59
2022-12-23T23:12:29.164Z,99858.25
2022-12-23T23:15:30.829Z,99866.88
2022-12-23T23:18:32.639Z,99877.34
2022-12-23T23:21:34.395Z,99874.09
2022-12-23T23:24:36.168Z,99875.62
2022-12-23T23:27:37.848Z,99873.94
2022-12-23T23:30:40.082Z,99875.19
2022-12-23T23:33:41.718Z,99873.81
2022-12-23T23:36:43.510Z,99854.22
2022-12-23T23:39:45.282Z,99855.06
2022-12-23T23:42:46.926Z,99850.91
2022-12-23T23:45:49.130Z,99842.13
2022-12-23T23:48:50.789Z,99847.28
2022-12-23T23:51:52.520Z,99851.84
2022-12-23T23:54:54.221Z,99844.59
2022-12-23T23:57:55.922Z,99837.19
